createdAt,value
2018-03-19T00:00:10.032Z,-3.81
2018-03-19T00:02:37.571Z,-3.81
2018-03-19T00:05:05.068Z,-3.83
2018-03-19T00:07:32.578Z,-3.87
2018-03-19T00:10:00.052Z,-4.01
2018-03-19T00:12:27.643Z,-4.03
2018-03-19T00:14:55.132Z,-3.94
2018-03-19T00:17:22.621Z,-3.95
2018-03-19T00:19:50.123Z,-3.88
2018-03-19T00:22:18.763Z,-3.92
2018-03-19T00:24:47.713Z,-3.93
2018-03-19T00:27:16.555Z,-3.93
2018-03-19T00:29:44.020Z,-3.95
2018-03-19T00:32:11.591Z,-3.97
2018-03-19T00:34:39.082Z,-3.97
2018-03-19T00:37:06.722Z,-4.05
2018-03-19T00:39:34.630Z,-4.08
2018-03-19T00:42:02.133Z,-3.95
2018-03-19T00:44:29.979Z,-3.92
2018-03-19T00:46:57.687Z,-3.94
2018-03-19T01:02:23.908Z,-4.13
2018-03-19T01:04:51.446Z,-4.09
2018-03-19T01:07:18.932Z,-4.08
2018-03-19T01:09:46.416Z,-4.07
2018-03-19T01:12:14.927Z,-3.94
2018-03-19T01:14:42.398Z,-4.04
2018-03-19T01:17:10.808Z,-4.02
2018-03-19T01:19:38.548Z,-4.07
2018-03-19T01:22:06.044Z,-4.00
2018-03-19T01:24:33.520Z,-4.09
2018-03-19T01:27:01.088Z,-4.08
2018-03-19T01:29:28.596Z,-4.13
2018-03-19T01:31:56.115Z,-4.05
2018-03-19T01:34:23.604Z,-4.08
2018-03-19T01:36:51.125Z,-4.11
2018-03-19T01:39:18.667Z,-4.16
2018-03-19T01:41:46.245Z,-4.29
2018-03-19T01:44:13.784Z,-4.26
2018-03-19T01:46:41.314Z,-4.27
2018-03-19T01:49:08.800Z,-4.21
2018-03-19T01:51:37.368Z,-4.28
2018-03-19T01:54:04.879Z,-4.27
2018-03-19T01:56:32.539Z,-4.24
2018-03-19T01:59:00.012Z,-4.19
2018-03-19T02:01:27.524Z,-4.25
2018-03-19T02:03:55.099Z,-4.41
2018-03-19T02:06:22.674Z,-4.37
2018-03-19T02:08:50.490Z,-4.33
2018-03-19T02:11:18.017Z,-4.28
2018-03-19T02:13:45.496Z,-4.25
2018-03-19T02:16:13.088Z,-4.46
2018-03-19T02:18:40.627Z,-4.43
2018-03-19T02:21:08.811Z,-4.51
2018-03-19T02:23:36.331Z,-4.48
2018-03-19T02:26:03.916Z,-4.47
2018-03-19T02:28:31.485Z,-4.50
2018-03-19T02:30:58.982Z,-4.50
2018-03-19T02:33:26.479Z,-4.49
2018-03-19T02:35:54.032Z,-4.52
2018-03-19T02:38:21.549Z,-4.50
2018-03-19T02:40:49.029Z,-4.45
2018-03-19T02:43:16.533Z,-4.55
2018-03-19T02:45:44.061Z,-4.44
2018-03-19T02:48:11.548Z,-4.61
2018-03-19T02:50:39.055Z,-4.66
2018-03-19T02:53:06.616Z,-4.63
2018-03-19T02:55:34.108Z,-4.67
2018-03-19T02:58:01.607Z,-4.66
2018-03-19T03:00:29.921Z,-4.61
2018-03-19T03:02:57.392Z,-4.58
2018-03-19T03:05:24.888Z,-4.58
2018-03-19T03:07:52.427Z,-4.59
2018-03-19T03:10:19.968Z,-4.67
2018-03-19T03:12:47.474Z,-4.73
2018-03-19T03:15:15.133Z,-4.74
2018-03-19T03:17:42.690Z,-4.68
2018-03-19T03:20:10.186Z,-4.71
2018-03-19T03:22:37.670Z,-4.59
2018-03-19T03:25:05.196Z,-4.61
2018-03-19T03:27:32.667Z,-4.56
2018-03-19T03:30:00.169Z,-4.71
2018-03-19T03:32:28.418Z,-4.73
2018-03-19T03:34:55.892Z,-4.70
2018-03-19T03:37:23.420Z,-4.74
2018-03-19T03:39:50.887Z,-4.82
2018-03-19T03:42:18.356Z,-4.76
2018-03-19T03:44:45.825Z,-4.79
2018-03-19T03:47:13.320Z,-4.77
2018-03-19T03:49:40.810Z,-4.87
2018-03-19T03:52:08.323Z,-4.81
2018-03-19T03:54:35.804Z,-4.74
2018-03-19T03:57:03.294Z,-4.72
2018-03-19T03:59:30.821Z,-4.74
2018-03-19T04:01:58.331Z,-4.70
2018-03-19T04:04:25.810Z,-4.62
2018-03-19T04:06:53.302Z,-4.80
2018-03-19T04:09:21.160Z,-4.96
2018-03-19T04:11:48.646Z,-5.07
2018-03-19T04:14:16.409Z,-5.12
2018-03-19T04:16:43.897Z,-5.00
2018-03-19T04:19:11.386Z,-4.97
2018-03-19T04:21:38.868Z,-4.99
2018-03-19T04:24:06.349Z,-5.07
2018-03-19T04:26:33.933Z,-5.07
2018-03-19T04:29:03.455Z,-4.95
2018-03-19T04:31:30.932Z,-4.97
2018-03-19T04:33:58.644Z,-4.98
2018-03-19T04:36:26.180Z,-5.07
2018-03-19T04:38:53.662Z,-5.13
2018-03-19T04:41:21.155Z,-5.09
2018-03-19T04:43:48.712Z,-5.11
2018-03-19T04:46:16.246Z,-5.16
2018-03-19T04:48:43.985Z,-5.11
2018-03-19T04:51:11.460Z,-5.15
2018-03-19T04:53:38.940Z,-5.14
2018-03-19T04:56:06.419Z,-5.15
2018-03-19T04:58:34.252Z,-5.20
2018-03-19T05:01:01.757Z,-5.14
2018-03-19T05:03:29.290Z,-5.12
2018-03-19T05:05:57.827Z,-5.06
2018-03-19T05:08:25.309Z,-5.11
2018-03-19T05:10:54.443Z,-5.14
2018-03-19T05:13:27.200Z,-5.05
2018-03-19T05:15:55.960Z,-4.89
2018-03-19T05:18:24.967Z,-4.86
2018-03-19T05:20:53.278Z,-4.97
2018-03-19T05:23:20.846Z,-5.01
2018-03-19T05:25:48.331Z,-5.08
2018-03-19T05:28:15.943Z,-4.96
2018-03-19T05:30:43.838Z,-4.97
2018-03-19T05:33:11.543Z,-4.98
2018-03-19T05:35:39.667Z,-5.00
2018-03-19T05:38:07.177Z,-4.92
2018-03-19T05:40:34.805Z,-4.58
2018-03-19T05:43:02.319Z,-4.04
2018-03-19T05:45:29.808Z,-3.84
2018-03-19T05:47:57.295Z,-4.05
2018-03-19T05:50:24.782Z,-4.16
2018-03-19T05:52:52.261Z,-4.32
2018-03-19T05:55:19.744Z,-4.40
2018-03-19T05:57:47.236Z,-4.50
2018-03-19T06:00:14.736Z,-4.48
2018-03-19T06:02:42.224Z,-4.37
2018-03-19T06:05:09.711Z,-4.35
2018-03-19T06:07:37.204Z,-4.32
2018-03-19T06:10:04.709Z,-4.56
2018-03-19T06:12:32.191Z,-4.45
2018-03-19T06:14:59.672Z,-4.56
2018-03-19T06:17:27.165Z,-4.44
2018-03-19T06:19:54.663Z,-4.28
2018-03-19T06:22:22.196Z,-4.29
2018-03-19T06:24:49.702Z,-4.27
2018-03-19T06:27:17.242Z,-4.32
2018-03-19T06:29:44.738Z,-4.29
2018-03-19T06:32:13.650Z,-4.29
2018-03-19T06:34:41.184Z,-4.18
2018-03-19T06:37:08.715Z,-4.10
2018-03-19T06:39:36.198Z,-4.17
2018-03-19T06:42:03.692Z,-4.22
2018-03-19T06:44:31.263Z,-4.14
2018-03-19T06:46:58.769Z,-3.90
2018-03-19T06:49:26.255Z,-4.04
2018-03-19T06:51:53.766Z,-4.01
2018-03-19T06:54:21.253Z,-3.84
2018-03-19T06:56:48.819Z,-3.60
2018-03-19T06:59:16.328Z,-3.74
2018-03-19T07:01:43.812Z,-3.81
2018-03-19T07:04:11.380Z,-3.73
2018-03-19T07:06:38.881Z,-3.84
2018-03-19T07:09:06.377Z,-3.56
2018-03-19T07:11:34.872Z,-3.58
2018-03-19T07:14:02.326Z,-3.53
2018-03-19T07:16:29.807Z,-3.45
2018-03-19T07:18:57.330Z,-3.42
2018-03-19T07:21:24.834Z,-3.34
2018-03-19T07:23:52.394Z,-3.26
2018-03-19T07:26:19.876Z,-2.93
2018-03-19T07:28:47.430Z,-2.70
2018-03-19T07:31:14.918Z,-2.75
2018-03-19T07:33:42.523Z,-3.00
2018-03-19T07:36:10.082Z,-2.97
2018-03-19T07:38:37.691Z,-2.88
2018-03-19T07:41:05.180Z,-3.03
2018-03-19T07:43:32.666Z,-3.09
2018-03-19T07:46:00.200Z,-3.00
2018-03-19T07:48:27.966Z,-3.10
2018-03-19T07:50:55.460Z,-2.87
2018-03-19T07:53:22.937Z,-2.68
2018-03-19T07:55:50.477Z,-2.88
2018-03-19T07:58:18.603Z,-3.00
2018-03-19T08:00:46.227Z,-2.88
2018-03-19T08:03:13.694Z,-2.75
2018-03-19T08:05:41.156Z,-2.75
2018-03-19T08:08:08.617Z,-2.57
2018-03-19T08:10:36.292Z,-2.71
2018-03-19T08:13:03.768Z,-2.71
2018-03-19T08:15:31.237Z,-2.40
2018-03-19T08:17:58.716Z,-2.45
2018-03-19T08:20:26.181Z,-2.62
2018-03-19T08:22:53.687Z,-2.54
2018-03-19T08:25:21.147Z,-2.26
2018-03-19T08:27:48.644Z,-2.22
2018-03-19T08:30:16.131Z,-2.33
2018-03-19T08:32:43.627Z,-2.11
2018-03-19T08:35:11.085Z,-2.15
2018-03-19T08:37:38.663Z,-1.90
2018-03-19T08:40:06.126Z,-1.70
2018-03-19T08:42:33.604Z,-1.81
2018-03-19T08:45:01.060Z,-1.97
2018-03-19T08:47:28.545Z,-1.87
2018-03-19T08:49:56.032Z,-1.94
2018-03-19T08:52:23.491Z,-1.74
2018-03-19T08:54:50.974Z,-1.56
2018-03-19T08:57:18.475Z,-1.68
2018-03-19T08:59:46.035Z,-2.01
2018-03-19T09:02:13.577Z,-2.24
2018-03-19T09:04:41.035Z,-1.99
2018-03-19T09:07:08.581Z,-2.21
2018-03-19T09:09:36.794Z,-1.96
2018-03-19T09:12:04.337Z,-1.61
2018-03-19T09:14:31.991Z,-1.53
2018-03-19T09:16:59.491Z,-1.42
2018-03-19T09:19:26.967Z,-1.48
2018-03-19T09:21:54.464Z,-1.02
2018-03-19T09:24:21.947Z,-1.01
2018-03-19T09:26:49.448Z,-1.34
2018-03-19T09:29:16.929Z,-1.39
2018-03-19T09:31:45.755Z,-1.29
2018-03-19T09:34:13.421Z,-1.50
2018-03-19T09:36:40.919Z,-1.40
2018-03-19T09:39:08.374Z,-1.16
2018-03-19T09:41:35.866Z,-1.11
2018-03-19T09:44:03.351Z,-1.27
2018-03-19T09:46:31.707Z,-0.92
2018-03-19T09:48:59.178Z,-1.17
2018-03-19T09:51:26.671Z,-1.02
2018-03-19T09:53:54.136Z,-0.95
2018-03-19T09:56:21.653Z,-0.99
2018-03-19T09:58:49.147Z,-0.61
2018-03-19T10:01:16.674Z,-0.25
2018-03-19T10:03:44.164Z,-0.01
2018-03-19T10:06:11.650Z,-0.12
2018-03-19T10:08:39.120Z,-0.22
2018-03-19T10:11:06.604Z,-0.42
2018-03-19T10:13:34.113Z,-0.40
2018-03-19T10:16:01.583Z,-0.50
2018-03-19T10:18:29.773Z,-0.61
2018-03-19T10:20:57.269Z,-0.56
2018-03-19T10:23:24.766Z,-0.48
2018-03-19T10:25:52.307Z,-0.20
2018-03-19T10:28:19.776Z,-0.44
2018-03-19T10:30:47.251Z,-0.33
2018-03-19T10:33:14.884Z,-0.42
2018-03-19T10:35:42.405Z,-0.12
2018-03-19T10:38:09.866Z,0.10
2018-03-19T10:40:37.354Z,-0.02
2018-03-19T10:43:04.894Z,-0.18
2018-03-19T10:45:32.453Z,0.10
2018-03-19T10:47:59.949Z,0.18
2018-03-19T10:52:59.207Z,-0.33
2018-03-19T10:58:02.063Z,-0.01
2018-03-19T11:00:29.527Z,0.05
2018-03-19T11:03:02.419Z,0.21
2018-03-19T11:05:30.819Z,-0.23
2018-03-19T11:08:03.843Z,-0.16
2018-03-19T11:10:32.718Z,-0.42
2018-03-19T11:13:00.179Z,-0.19
2018-03-19T11:15:27.688Z,-0.10
2018-03-19T11:17:55.159Z,-0.11
2018-03-19T11:20:22.635Z,0.03
2018-03-19T11:22:50.133Z,-0.25
2018-03-19T11:25:17.629Z,-0.05
2018-03-19T11:27:45.098Z,-0.04
2018-03-19T11:30:12.655Z,-0.17
2018-03-19T11:32:40.143Z,-0.18
2018-03-19T11:35:07.660Z,-0.30
2018-03-19T11:37:35.220Z,-0.38
2018-03-19T11:40:02.770Z,-0.19
2018-03-19T11:42:30.240Z,0.05
2018-03-19T11:44:57.741Z,0.08
2018-03-19T11:47:25.234Z,-0.14
2018-03-19T11:49:52.758Z,-0.04
2018-03-19T11:52:20.238Z,0.22
2018-03-19T11:54:47.972Z,0.07
2018-03-19T11:57:15.482Z,0.35
2018-03-19T11:59:43.008Z,0.56
2018-03-19T12:02:10.513Z,0.37
2018-03-19T12:04:37.983Z,0.65
2018-03-19T12:07:05.483Z,0.81
2018-03-19T12:09:32.979Z,0.82
2018-03-19T12:12:00.434Z,0.69
2018-03-19T12:14:27.980Z,0.30
2018-03-19T12:16:55.448Z,0.36
2018-03-19T12:19:22.942Z,0.32
2018-03-19T12:21:50.503Z,0.27
2018-03-19T12:24:17.980Z,-0.06
2018-03-19T12:26:45.462Z,0.16
2018-03-19T12:29:13.029Z,-0.04
2018-03-19T12:31:40.844Z,-0.18
2018-03-19T12:34:08.319Z,-0.23
2018-03-19T12:36:35.827Z,-0.10
2018-03-19T12:39:03.343Z,-0.07
2018-03-19T12:41:30.833Z,-0.21
2018-03-19T12:43:58.301Z,-0.45
2018-03-19T12:46:25.765Z,-0.61
2018-03-19T12:48:53.239Z,-0.65
2018-03-19T12:51:20.728Z,-0.69
2018-03-19T12:53:48.196Z,-0.64
2018-03-19T12:56:15.832Z,-0.68
2018-03-19T12:58:43.330Z,-0.60
2018-03-19T13:01:10.787Z,-0.70
2018-03-19T13:03:38.284Z,-0.75
2018-03-19T13:06:05.812Z,-0.71
2018-03-19T13:08:33.412Z,-0.68
2018-03-19T13:11:00.897Z,-0.47
2018-03-19T13:13:28.411Z,-0.49
2018-03-19T13:15:55.874Z,-0.51
2018-03-19T13:18:24.728Z,-0.66
2018-03-19T13:20:52.218Z,-0.50
2018-03-19T13:23:22.381Z,-0.44
2018-03-19T13:25:50.436Z,-0.54
2018-03-19T13:28:19.674Z,-0.63
2018-03-19T13:30:47.260Z,-0.63
2018-03-19T13:33:14.878Z,-0.70
2018-03-19T13:35:42.365Z,-0.89
2018-03-19T13:38:09.842Z,-0.92
2018-03-19T13:40:37.339Z,-0.93
2018-03-19T13:43:05.696Z,-0.66
2018-03-19T13:45:34.250Z,-0.68
2018-03-19T13:48:02.676Z,-0.82
2018-03-19T13:50:30.149Z,-0.61
2018-03-19T13:52:57.626Z,-0.65
2018-03-19T13:55:25.151Z,-0.55
2018-03-19T13:57:52.616Z,-0.66
2018-03-19T14:00:20.120Z,-0.68
2018-03-19T14:02:48.300Z,-0.71
2018-03-19T14:05:15.762Z,-0.47
2018-03-19T14:07:43.231Z,-0.37
2018-03-19T14:10:10.722Z,-0.72
2018-03-19T14:12:38.210Z,-0.97
2018-03-19T14:15:05.699Z,-0.97
2018-03-19T14:17:33.159Z,-0.71
2018-03-19T14:20:00.645Z,-0.85
2018-03-19T14:22:28.140Z,-0.86
2018-03-19T14:24:55.574Z,-1.01
2018-03-19T14:27:23.066Z,-1.10
2018-03-19T14:29:50.569Z,-1.05
2018-03-19T14:32:18.105Z,-1.06
2018-03-19T14:34:45.595Z,-1.06
2018-03-19T14:37:13.051Z,-0.99
2018-03-19T14:39:41.221Z,-0.94
2018-03-19T14:42:08.722Z,-0.85
2018-03-19T14:44:36.189Z,-0.77
2018-03-19T14:47:03.651Z,-0.72
2018-03-19T14:49:31.128Z,-0.78
2018-03-19T14:51:58.609Z,-0.78
2018-03-19T14:54:26.299Z,-1.06
2018-03-19T14:56:53.814Z,-1.14
2018-03-19T14:59:21.280Z,-1.29
2018-03-19T15:01:48.740Z,-1.19
2018-03-19T15:04:16.900Z,-1.17
2018-03-19T15:06:44.379Z,-1.10
2018-03-19T15:09:11.868Z,-1.10
2018-03-19T15:11:39.337Z,-1.26
2018-03-19T15:14:06.807Z,-1.24
2018-03-19T15:16:35.092Z,-1.24
2018-03-19T15:19:02.617Z,-1.23
2018-03-19T15:21:30.079Z,-1.20
2018-03-19T15:23:57.616Z,-1.38
2018-03-19T15:26:25.092Z,-1.36
2018-03-19T15:28:52.555Z,-1.39
2018-03-19T15:31:20.080Z,-1.34
2018-03-19T15:33:47.560Z,-1.27
2018-03-19T15:36:15.063Z,-1.30
2018-03-19T15:38:42.511Z,-1.27
2018-03-19T15:41:10.004Z,-1.42
2018-03-19T15:43:37.485Z,-1.55
2018-03-19T15:46:05.014Z,-1.46
2018-03-19T15:48:32.478Z,-1.47
2018-03-19T15:50:59.944Z,-1.41
2018-03-19T15:53:27.441Z,-1.43
2018-03-19T15:55:54.951Z,-1.41
2018-03-19T15:58:22.500Z,-1.35
2018-03-19T16:00:50.188Z,-1.44
2018-03-19T16:03:17.711Z,-1.39
2018-03-19T16:05:45.222Z,-1.45
2018-03-19T16:08:12.679Z,-1.58
2018-03-19T16:10:40.168Z,-1.77
2018-03-19T16:13:07.654Z,-1.81
2018-03-19T16:15:35.124Z,-1.80
2018-03-19T16:18:02.613Z,-1.74
2018-03-19T16:20:31.075Z,-1.79
2018-03-19T16:22:58.552Z,-1.70
2018-03-19T16:25:26.044Z,-1.71
2018-03-19T16:27:53.506Z,-1.75
2018-03-19T16:30:20.994Z,-1.77
2018-03-19T16:32:48.509Z,-1.78
2018-03-19T16:35:15.983Z,-1.85
2018-03-19T16:37:43.452Z,-1.91
2018-03-19T16:40:10.948Z,-1.91
2018-03-19T16:42:38.418Z,-1.91
2018-03-19T16:45:05.889Z,-1.99
2018-03-19T16:47:33.372Z,-2.09
2018-03-19T16:50:00.837Z,-2.04
2018-03-19T16:52:28.324Z,-2.18
2018-03-19T16:54:55.816Z,-2.15
2018-03-19T16:57:23.318Z,-2.20
2018-03-19T16:59:50.803Z,-2.22
2018-03-19T17:02:18.315Z,-2.14
2018-03-19T17:04:45.802Z,-2.12
2018-03-19T17:07:13.334Z,-2.20
2018-03-19T17:09:40.775Z,-2.16
2018-03-19T17:12:08.580Z,-2.07
2018-03-19T17:14:38.420Z,-2.10
2018-03-19T17:17:06.257Z,-2.06
2018-03-19T17:19:33.746Z,-2.11
2018-03-19T17:22:01.484Z,-2.16
2018-03-19T17:24:29.786Z,-2.16
2018-03-19T17:26:57.383Z,-2.22
2018-03-19T17:29:24.899Z,-2.26
2018-03-19T17:31:52.400Z,-2.17
2018-03-19T17:34:19.892Z,-2.25
2018-03-19T17:36:51.052Z,-2.30
2018-03-19T17:39:19.327Z,-2.37
2018-03-19T17:41:48.222Z,-2.33
2018-03-19T17:44:16.856Z,-2.19
2018-03-19T17:46:44.316Z,-2.24
2018-03-19T17:49:11.904Z,-2.18
2018-03-19T17:51:39.447Z,-2.16
2018-03-19T17:54:06.998Z,-2.04
2018-03-19T17:56:35.333Z,-2.00
2018-03-19T17:59:02.825Z,-2.11
2018-03-19T18:01:30.303Z,-2.08
2018-03-19T18:03:57.794Z,-2.14
2018-03-19T18:06:26.906Z,-2.16
2018-03-19T18:08:54.595Z,-2.04
2018-03-19T18:11:23.658Z,-2.10
2018-03-19T18:13:51.256Z,-2.11
2018-03-19T18:16:18.757Z,-1.96
2018-03-19T18:18:46.934Z,-2.06
2018-03-19T18:21:14.677Z,-2.11
2018-03-19T18:23:42.776Z,-2.10
2018-03-19T18:26:10.237Z,-2.02
2018-03-19T18:28:37.729Z,-2.14
2018-03-19T18:31:05.258Z,-2.13
2018-03-19T18:33:33.261Z,-2.17
2018-03-19T18:36:00.731Z,-2.07
2018-03-19T18:38:28.247Z,-2.13
2018-03-19T18:40:56.126Z,-2.23
2018-03-19T18:43:23.634Z,-2.37
2018-03-19T18:45:51.200Z,-2.37
2018-03-19T18:48:18.735Z,-2.37
2018-03-19T18:50:46.428Z,-2.35
2018-03-19T18:53:13.982Z,-2.37
2018-03-19T18:55:41.580Z,-2.38
2018-03-19T18:58:09.566Z,-2.38
2018-03-19T19:00:37.059Z,-2.49
2018-03-19T19:03:04.616Z,-2.47
2018-03-19T19:05:32.079Z,-2.47
2018-03-19T19:07:59.643Z,-2.46
2018-03-19T19:10:27.146Z,-2.46
2018-03-19T19:12:55.190Z,-2.40
2018-03-19T19:15:22.687Z,-2.33
2018-03-19T19:17:50.158Z,-2.50
2018-03-19T19:20:18.240Z,-2.39
2018-03-19T19:22:45.758Z,-2.47
2018-03-19T19:25:13.347Z,-2.53
2018-03-19T19:27:40.863Z,-2.56
2018-03-19T19:30:08.386Z,-2.45
2018-03-19T19:32:37.156Z,-2.50
2018-03-19T19:35:05.312Z,-2.41
2018-03-19T19:37:32.844Z,-2.51
2018-03-19T19:40:00.437Z,-2.51
2018-03-19T19:42:28.077Z,-2.42
2018-03-19T19:44:55.632Z,-2.41
2018-03-19T19:47:23.112Z,-2.47
2018-03-19T19:49:50.598Z,-2.50
2018-03-19T19:52:18.106Z,-2.33
2018-03-19T19:54:45.595Z,-2.37
2018-03-19T19:57:13.143Z,-2.39
2018-03-19T19:59:40.638Z,-2.55
2018-03-19T20:02:08.147Z,-2.51
2018-03-19T20:04:35.771Z,-2.35
2018-03-19T20:07:03.295Z,-2.44
2018-03-19T20:09:30.782Z,-2.36
2018-03-19T20:11:58.313Z,-2.44
2018-03-19T20:14:25.831Z,-2.50
2018-03-19T20:16:53.334Z,-2.52
2018-03-19T20:19:20.858Z,-2.57
2018-03-19T20:21:48.381Z,-2.59
2018-03-19T20:24:16.116Z,-2.48
2018-03-19T20:26:43.611Z,-2.58
2018-03-19T20:29:11.159Z,-2.55
2018-03-19T20:31:38.650Z,-2.51
2018-03-19T20:34:06.131Z,-2.55
2018-03-19T20:36:33.626Z,-2.50
2018-03-19T20:39:01.152Z,-2.55
2018-03-19T20:41:28.660Z,-2.48
2018-03-19T20:43:56.150Z,-2.56
2018-03-19T20:46:23.657Z,-2.68
2018-03-19T20:48:51.222Z,-2.64
2018-03-19T20:51:18.802Z,-2.59
2018-03-19T20:53:46.285Z,-2.49
2018-03-19T20:56:13.937Z,-2.62
2018-03-19T20:58:41.458Z,-2.70
2018-03-19T21:01:09.003Z,-2.67
2018-03-19T21:03:36.548Z,-2.65
2018-03-19T21:06:04.715Z,-2.67
2018-03-19T21:08:32.282Z,-2.73
2018-03-19T21:10:59.769Z,-2.76
2018-03-19T21:13:27.274Z,-2.75
2018-03-19T21:15:54.850Z,-2.71
2018-03-19T21:18:22.391Z,-2.54
2018-03-19T21:20:49.878Z,-2.50
2018-03-19T21:23:17.409Z,-2.41
2018-03-19T21:25:44.952Z,-2.52
2018-03-19T21:28:12.597Z,-2.60
2018-03-19T21:30:40.244Z,-2.63
2018-03-19T21:33:07.877Z,-2.49
2018-03-19T21:35:35.424Z,-2.50
2018-03-19T21:38:02.979Z,-2.50
2018-03-19T21:40:30.603Z,-2.61
2018-03-19T21:42:58.139Z,-2.68
2018-03-19T21:45:25.630Z,-2.60
2018-03-19T21:47:53.142Z,-2.72
2018-03-19T21:50:20.687Z,-2.58
2018-03-19T21:52:48.156Z,-2.61
2018-03-19T21:55:16.065Z,-2.74
2018-03-19T21:57:43.648Z,-2.63
2018-03-19T22:00:11.121Z,-2.80
2018-03-19T22:02:38.600Z,-2.77
2018-03-19T22:05:06.997Z,-2.75
2018-03-19T22:07:34.482Z,-2.77
2018-03-19T22:10:01.995Z,-2.75
2018-03-19T22:12:31.067Z,-2.78
2018-03-19T22:15:02.279Z,-2.81
2018-03-19T22:17:29.786Z,-2.84
2018-03-19T22:19:57.259Z,-2.77
2018-03-19T22:22:24.743Z,-2.68
2018-03-19T22:24:52.231Z,-2.66
2018-03-19T22:27:19.765Z,-2.70
2018-03-19T22:29:47.236Z,-2.70
2018-03-19T22:32:14.735Z,-2.73
2018-03-19T22:34:42.388Z,-2.68
2018-03-19T22:37:09.860Z,-2.59
2018-03-19T22:39:37.388Z,-2.62
2018-03-19T22:42:04.865Z,-2.60
2018-03-19T22:44:33.052Z,-2.67
2018-03-19T22:47:02.628Z,-2.66
2018-03-19T22:49:30.147Z,-2.60
2018-03-19T22:51:57.631Z,-2.55
2018-03-19T22:54:25.447Z,-2.44
2018-03-19T22:56:53.095Z,-2.54
2018-03-19T22:59:20.563Z,-2.54
2018-03-19T23:01:48.104Z,-2.51
2018-03-19T23:04:27.399Z,-2.60
2018-03-19T23:06:54.960Z,-2.56
2018-03-19T23:09:22.443Z,-2.55
2018-03-19T23:11:49.984Z,-2.56
2018-03-19T23:14:17.489Z,-2.51
2018-03-19T23:16:44.989Z,-2.52
2018-03-19T23:19:12.486Z,-2.53
2018-03-19T23:21:39.992Z,-2.52
2018-03-19T23:24:07.956Z,-2.47
2018-03-19T23:26:35.432Z,-2.50
2018-03-19T23:29:02.936Z,-2.51
2018-03-19T23:31:30.413Z,-2.49
2018-03-19T23:33:57.905Z,-2.45
2018-03-19T23:36:25.498Z,-2.43
2018-03-19T23:38:52.975Z,-2.36
2018-03-19T23:41:20.449Z,-2.33
2018-03-19T23:43:48.210Z,-2.33
2018-03-19T23:46:16.863Z,-2.40
2018-03-19T23:48:44.892Z,-2.44
2018-03-19T23:51:13.698Z,-2.34
2018-03-19T23:53:41.263Z,-2.35
2018-03-19T23:56:08.753Z,-2.39
2018-03-19T23:58:36.313Z,-2.39
